• Join FlightAware (Why Join?)
  • Login
  • US Flag 
03:28PM EDT


 

Airport Tracker/Info


-or-


 

Live Flight TrackerFlight Track Log ✈ AFL150 ✈ 29-Dec-2013 ✈ UUEE / SVO - MUHA / HAV

Flight Track Log - Related Links

Times and Time Zones

All times are in EST time to prevent confusion due to time zone crossing. See the AFL150 flight status page for this flight to view local times or setup timezone preferences in your user account.

Time Position Orientation Groundspeed Altitude Reporting Facility
EST Latitude Longitude Course Direction KTS MPH feet Rate Location/Type
04:41AM 56.1489 37.0134 314° West  Level FlightAware Approximate
04:42AM 56.2325 36.8579 314° West  Level FlightAware Approximate
04:43AM 56.3158 36.7018 314° West  Level FlightAware Approximate
04:44AM 56.3990 36.5449 314° West  Level FlightAware Approximate
04:45AM 56.4820 36.3874 314° West  Level FlightAware Approximate
04:46AM 56.5648 36.2291 314° West  Level FlightAware Approximate
04:47AM 56.6474 36.0702 313° West  Level FlightAware Approximate
04:48AM 56.7298 35.9106 313° West  Level FlightAware Approximate
04:49AM 56.8120 35.7503 313° West  Level FlightAware Approximate
04:50AM 56.8940 35.5892 313° West  Level FlightAware Approximate
04:51AM 56.9757 35.4275 313° West  Level FlightAware Approximate
04:52AM 57.0573 35.2651 313° West  Level FlightAware Approximate
04:53AM 57.1386 35.1019 313° West  Level FlightAware Approximate
04:54AM 57.2198 34.9380 312° West  Level FlightAware Approximate
04:55AM 57.3007 34.7734 312° West  Level FlightAware Approximate
04:56AM 57.3814 34.6081 312° West  Level FlightAware Approximate
04:57AM 57.4493 34.4237 309° West  Level Estimated
04:58AM 57.5256 34.2507 309° West  Level FlightAware Approximate
04:59AM 57.6017 34.0769 309° West  Level FlightAware Approximate
05:00AM 57.6775 33.9024 309° West  Level FlightAware Approximate
05:01AM 57.7531 33.7271 309° West  Level FlightAware Approximate
05:02AM 57.8284 33.5512 309° West  Level FlightAware Approximate
05:03AM 57.9035 33.3745 309° West  Level FlightAware Approximate
05:04AM 57.9784 33.1970 309° West  Level FlightAware Approximate
05:05AM 58.0529 33.0188 308° West  Level FlightAware Approximate
05:06AM 58.1273 32.8399 308° West  Level FlightAware Approximate
05:07AM 58.2014 32.6602 308° West  Level FlightAware Approximate
05:08AM 58.2752 32.4798 308° West  Level FlightAware Approximate
05:09AM 58.3488 32.2986 308° West  Level FlightAware Approximate
05:10AM 58.4221 32.1167 308° West  Level FlightAware Approximate
05:11AM 58.4952 31.9340 307° West  Level FlightAware Approximate
05:12AM 58.5680 31.7505 307° West  Level FlightAware Approximate
05:13AM 58.6405 31.5663 307° West  Level FlightAware Approximate
05:14AM 58.7128 31.3813 307° West  Level FlightAware Approximate
05:15AM 58.7848 31.1956 307° West  Level FlightAware Approximate
05:16AM 58.8566 31.0090 307° West  Level FlightAware Approximate
05:17AM 58.9281 30.8217 307° West  Level FlightAware Approximate
05:18AM 58.9993 30.6336 306° West  Level FlightAware Approximate
05:19AM 59.0702 30.4448 306° West  Level FlightAware Approximate
05:20AM 59.1409 30.2552 306° West  Level FlightAware Approximate
05:21AM 59.2112 30.0648 306° West  Level FlightAware Approximate
05:22AM 59.2813 29.8736 306° West  Level FlightAware Approximate
05:23AM 59.3512 29.6816 306° West  Level FlightAware Approximate
05:24AM 59.4207 29.4888 305° West  Level FlightAware Approximate
05:25AM 59.4899 29.2952 305° West  Level FlightAware Approximate
05:26AM 59.5589 29.1008 305° West  Level FlightAware Approximate
05:27AM 59.6276 28.9057 305° West  Level FlightAware Approximate
05:28AM 59.6867 28.6983 304° West  Level Estimated
05:29AM 59.7545 28.5012 304° West  Level FlightAware Approximate
05:30AM 59.8220 28.3033 304° West  Level FlightAware Approximate
05:31AM 59.8892 28.1046 304° West  Level FlightAware Approximate
05:32AM 59.9561 27.9051 304° West  Level FlightAware Approximate
05:33AM 60.0227 27.7048 304° West  Level FlightAware Approximate
05:34AM 60.0890 27.5037 304° West  Level FlightAware Approximate
05:35AM 60.1550 27.3017 303° West  Level FlightAware Approximate
05:36AM 60.2206 27.0990 303° West  Level FlightAware Approximate
05:37AM 60.2860 26.8954 303° West  Level FlightAware Approximate
05:38AM 60.3511 26.6910 303° West  Level FlightAware Approximate
05:39AM 60.4158 26.4859 303° West  Level FlightAware Approximate
05:40AM 60.4802 26.2799 302° West  Level FlightAware Approximate
05:41AM 60.5443 26.0730 302° West  Level FlightAware Approximate
05:42AM 60.6081 25.8654 302° West  Level FlightAware Approximate
05:43AM 60.6716 25.6569 302° West  Level FlightAware Approximate
05:44AM 60.7347 25.4477 302° West  Level FlightAware Approximate
05:45AM 60.7975 25.2376 302° West  Level FlightAware Approximate
05:46AM 60.8600 25.0266 301° West  Level FlightAware Approximate
05:47AM 60.9221 24.8149 301° West  Level FlightAware Approximate
05:48AM 60.9839 24.6023 301° West  Level FlightAware Approximate
05:49AM 61.0454 24.3889 301° West  Level FlightAware Approximate
05:50AM 61.1065 24.1747 301° West  Level FlightAware Approximate
05:51AM 61.1673 23.9597 300° West  Level FlightAware Approximate
05:52AM 61.2278 23.7438 300° West  Level FlightAware Approximate
05:53AM 61.2879 23.5271 300° West  Level FlightAware Approximate
05:54AM 61.3476 23.3095 300° West  Level FlightAware Approximate
05:55AM 61.4070 23.0912 300° West  Level FlightAware Approximate
05:56AM 61.4661 22.8720 299° West  Level FlightAware Approximate
05:57AM 61.5248 22.6519 299° West  Level FlightAware Approximate
05:58AM 61.5832 22.4311 299° West  Level FlightAware Approximate
05:59AM 61.6412 22.2094 299° West  Level FlightAware Approximate
06:00AM 61.6988 21.9869 299° West  Level FlightAware Approximate
06:01AM 61.7561 21.7635 299° West  Level FlightAware Approximate
06:02AM 61.8130 21.5393 298° West  Level FlightAware Approximate
06:03AM 61.8695 21.3143 298° West  Level FlightAware Approximate
06:04AM 61.9257 21.0885 298° West  Level FlightAware Approximate
06:05AM 61.9815 20.8618 298° West  Level FlightAware Approximate
06:06AM 62.0369 20.6343 298° West  Level FlightAware Approximate
06:06AM 60.7288 21.7776 298° West 452 520 34,000  Level FlightAware ADS-B (CYGK)
06:08AM 60.8223 21.3325 293° West  Level Estimated
06:09AM 60.8694 21.1052 293° West  Level Estimated
06:10AM 60.9160 20.8772 293° West  Level Estimated
06:11AM 60.9622 20.6485 293° West  Level Estimated
06:12AM 61.0080 20.4192 292° West  Level Estimated
06:13AM 61.0535 20.1892 292° West  Level Estimated
06:14AM 61.0985 19.9586 292° West  Level Estimated
06:15AM 61.1432 19.7273 292° West  Level Estimated
06:16AM 61.1875 19.4953 292° West  Level Estimated
06:17AM 61.2313 19.2628 291° West  Level Estimated
06:18AM 61.2748 19.0295 291° West  Level Estimated
06:19AM 61.3179 18.7956 291° West  Level Estimated
06:20AM 61.3605 18.5611 291° West  Level Estimated
06:21AM 61.4028 18.3260 291° West  Level Estimated
06:22AM 61.4447 18.0902 290° West  Level Estimated
06:23AM 61.4861 17.8537 290° West  Level Estimated
06:24AM 61.5271 17.6167 290° West  Level Estimated
06:25AM 61.5678 17.3790 290° West  Level Estimated
06:26AM 61.6080 17.1407 290° West  Level Estimated
06:27AM 61.6478 16.9018 289° West  Level Estimated
06:28AM 61.6871 16.6623 289° West  Level Estimated
06:29AM 61.7261 16.4221 289° West  Level Estimated
06:30AM 61.7646 16.1814 289° West  Level Estimated
06:31AM 61.8027 15.9400 289° West  Level Estimated
06:32AM 61.8404 15.6981 288° West  Level Estimated
06:33AM 61.8777 15.4556 288° West  Level Estimated
06:34AM 61.9145 15.2125 288° West  Level Estimated
06:35AM 61.9509 14.9688 288° West  Level Estimated
06:36AM 61.9869 14.7245 288° West  Level Estimated
06:37AM 62.0224 14.4796 287° West  Level Estimated
06:38AM 62.0576 14.2342 287° West  Level Estimated
06:39AM 62.0922 13.9882 287° West  Level Estimated
06:40AM 62.1265 13.7417 287° West  Level Estimated
06:41AM 62.1603 13.4946 286° West  Level Estimated
06:42AM 62.1936 13.2469 286° West  Level Estimated
06:43AM 62.2265 12.9987 286° West  Level Estimated
06:44AM 62.2590 12.7500 286° West  Level Estimated
06:45AM 62.2910 12.5007 286° West  Level Estimated
06:46AM 62.3226 12.2510 285° West  Level Estimated
06:47AM 62.3537 12.0007 285° West  Level Estimated
06:48AM 62.3844 11.7498 285° West  Level Estimated
06:49AM 62.4146 11.4985 285° West  Level Estimated
06:50AM 62.4444 11.2466 284° West  Level Estimated
06:51AM 62.4737 10.9943 284° West  Level Estimated
06:52AM 62.5025 10.7415 284° West  Level Estimated
06:53AM 62.5309 10.4881 284° West  Level Estimated
06:54AM 62.5589 10.2344 284° West  Level Estimated
06:55AM 62.5863 9.9801 283° West  Level Estimated
06:56AM 62.6134 9.7253 283° West  Level Estimated
06:57AM 62.6399 9.4701 283° West  Level Estimated
06:58AM 62.6660 9.2145 283° West  Level Estimated
06:59AM 62.6916 8.9584 282° West  Level Estimated
07:00AM 62.7168 8.7018 282° West  Level Estimated
07:01AM 62.7415 8.4449 282° West  Level Estimated
07:02AM 62.7657 8.1875 282° West  Level Estimated
07:03AM 62.7894 7.9297 281° West  Level Estimated
07:04AM 62.8127 7.6714 281° West  Level Estimated
07:05AM 62.8355 7.4128 281° West  Level Estimated
07:06AM 62.8578 7.1538 281° West  Level Estimated
07:07AM 62.8797 6.8944 281° West  Level Estimated
07:08AM 62.9010 6.6346 280° West  Level Estimated
07:09AM 62.9219 6.3744 280° West  Level Estimated
07:10AM 62.9423 6.1138 280° West  Level Estimated
07:11AM 62.9623 5.8529 280° West  Level Estimated
07:12AM 62.9817 5.5917 279° West  Level Estimated
07:13AM 63.0007 5.3301 279° West  Level Estimated
07:14AM 63.0192 5.0682 279° West  Level Estimated
07:15AM 63.0372 4.8059 279° West  Level Estimated
07:16AM 63.0547 4.5433 278° West  Level Estimated
07:17AM 63.0717 4.2804 278° West  Level Estimated
07:18AM 63.0882 4.0172 278° West  Level Estimated
07:19AM 63.1043 3.7537 278° West  Level Estimated
07:20AM 63.1199 3.4900 278° West  Level Estimated
07:21AM 63.1349 3.2259 277° West  Level Estimated
07:22AM 63.1495 2.9616 277° West  Level Estimated
07:23AM 63.1636 2.6970 277° West  Level Estimated
07:24AM 63.1772 2.4321 277° West  Level Estimated
07:25AM 63.1903 2.1671 276° West  Level Estimated
07:26AM 63.2029 1.9017 276° West  Level Estimated
07:27AM 63.2150 1.6362 276° West  Level Estimated
07:28AM 63.2266 1.3704 276° West  Level Estimated
07:29AM 63.2378 1.1045 275° West  Level Estimated
07:30AM 63.2484 0.8383 275° West  Level Estimated
07:31AM 63.2585 0.5719 275° West  Level Estimated
07:32AM 63.2681 0.3054 275° West  Level Estimated
07:33AM 63.2773 0.0387 274° West  Level Estimated
07:34AM 63.2859 -0.2282 274° West  Level Estimated
07:35AM 63.2940 -0.4953 274° West  Level Estimated
07:36AM 63.3017 -0.7624 274° West  Level Estimated
07:37AM 63.3088 -1.0298 274° West  Level Estimated
07:38AM 63.3154 -1.2972 273° West  Level Estimated
07:39AM 63.3215 -1.5648 273° West  Level Estimated
07:40AM 63.3272 -1.8325 273° West  Level Estimated
07:41AM 63.3323 -2.1003 273° West  Level Estimated
07:42AM 63.3369 -2.3681 272° West  Level Estimated
07:43AM 63.3410 -2.6361 272° West  Level Estimated
07:44AM 63.3447 -2.9041 272° West  Level Estimated
07:45AM 63.3478 -3.1722 272° West  Level Estimated
07:46AM 63.3504 -3.4403 271° West  Level Estimated
07:47AM 63.3525 -3.7085 271° West  Level Estimated
07:48AM 63.3541 -3.9767 271° West  Level Estimated
07:49AM 63.3552 -4.2450 271° West  Level Estimated
07:50AM 63.3558 -4.5132 270° West  Level Estimated
07:51AM 63.3559 -4.7815 270° West  Level Estimated
07:52AM 63.3555 -5.0497 270° West  Level Estimated
07:53AM 63.3546 -5.3180 270° West  Level Estimated
07:54AM 63.3532 -5.5862 269° West  Level Estimated
07:55AM 63.3513 -5.8544 269° West  Level Estimated
07:56AM 63.3488 -6.1226 269° West  Level Estimated
07:57AM 63.3459 -6.3907 269° West  Level Estimated
07:58AM 63.3425 -6.6588 268° West  Level Estimated
07:59AM 63.3386 -6.9267 268° West  Level Estimated
08:00AM 63.3341 -7.1946 268° West  Level Estimated
08:01AM 63.3292 -7.4624 268° West  Level Estimated
08:02AM 63.3238 -7.7302 268° West  Level Estimated
08:03AM 63.3178 -7.9978 267° West  Level Estimated
08:04AM 63.3114 -8.2653 267° West  Level Estimated
08:05AM 63.3044 -8.5326 267° West  Level Estimated
08:06AM 63.2970 -8.7999 267° West  Level Estimated
08:07AM 63.2891 -9.0670 266° West  Level Estimated
08:08AM 63.2806 -9.3339 266° West  Level Estimated
08:09AM 63.2717 -9.6007 266° West  Level Estimated
08:10AM 63.2622 -9.8673 266° West  Level Estimated
08:11AM 63.2523 -10.1338 265° West  Level Estimated
08:12AM 63.2419 -10.4000 265° West  Level Estimated
08:13AM 63.2309 -10.6661 265° West  Level Estimated
08:14AM 63.2195 -10.9319 265° West  Level Estimated
08:15AM 63.2076 -11.1975 264° West  Level Estimated
08:16AM 63.1952 -11.4629 264° West  Level Estimated
08:17AM 63.1823 -11.7281 264° West  Level Estimated
08:18AM 63.1688 -11.9931 264° West  Level Estimated
08:19AM 63.1549 -12.2577 263° West  Level Estimated
08:20AM 63.1406 -12.5222 263° West  Level Estimated
08:21AM 63.1257 -12.7863 263° West  Level Estimated
08:22AM 63.1103 -13.0502 263° West  Level Estimated
08:23AM 63.0945 -13.3138 263° West  Level Estimated
08:24AM 63.0781 -13.5771 262° West  Level Estimated
08:25AM 63.0613 -13.8401 262° West  Level Estimated
08:26AM 63.0439 -14.1028 262° West  Level Estimated
08:27AM 63.0261 -14.3652 262° West  Level Estimated
08:28AM 63.0078 -14.6273 261° West  Level Estimated
08:29AM 62.9890 -14.8890 261° West  Level Estimated
08:30AM 62.9698 -15.1504 261° West  Level Estimated
08:31AM 62.9500 -15.4114 261° West  Level Estimated
08:32AM 62.9298 -15.6721 260° West  Level Estimated
08:33AM 62.9091 -15.9324 260° West  Level Estimated
08:34AM 62.8879 -16.1924 260° West  Level Estimated
08:35AM 62.8662 -16.4520 260° West  Level Estimated
08:36AM 62.8441 -16.7111 260° West  Level Estimated
08:37AM 62.8215 -16.9699 259° West  Level Estimated
08:38AM 62.7984 -17.2283 259° West  Level Estimated
08:39AM 62.7748 -17.4863 259° West  Level Estimated
08:40AM 62.7508 -17.7438 259° West  Level Estimated
08:41AM 62.7263 -18.0009 258° West  Level Estimated
08:42AM 62.7013 -18.2577 258° West  Level Estimated
08:43AM 62.6759 -18.5139 258° West  Level Estimated
08:44AM 62.6500 -18.7697 258° West  Level Estimated
08:45AM 62.6236 -19.0251 257° West  Level Estimated
08:46AM 62.5967 -19.2800 257° West  Level Estimated
08:47AM 62.5695 -19.5345 257° West  Level Estimated
08:48AM 62.5417 -19.7885 257° West  Level Estimated
08:49AM 62.5135 -20.0420 257° West  Level Estimated
08:50AM 62.4848 -20.2950 256° West  Level Estimated
08:51AM 62.4557 -20.5475 256° West  Level Estimated
08:52AM 62.4261 -20.7995 256° West  Level Estimated
08:53AM 62.3960 -21.0511 256° West  Level Estimated
08:54AM 62.3655 -21.3021 255° West  Level Estimated
08:55AM 62.3346 -21.5526 255° West  Level Estimated
08:56AM 62.3032 -21.8026 255° West  Level Estimated
08:57AM 62.2713 -22.0520 255° West  Level Estimated
08:58AM 62.2390 -22.3010 255° West  Level Estimated
08:59AM 62.2063 -22.5494 254° West  Level Estimated
09:00AM 62.1731 -22.7972 254° West  Level Estimated
09:01AM 62.1395 -23.0445 254° West  Level Estimated
09:02AM 62.1054 -23.2913 254° West  Level Estimated
09:03AM 62.0709 -23.5375 253° West  Level Estimated
09:04AM 62.0360 -23.7831 253° West  Level Estimated
09:05AM 62.0006 -24.0282 253° West  Level Estimated
09:06AM 61.9648 -24.2727 253° West  Level Estimated
09:07AM 61.9286 -24.5166 253° West  Level Estimated
09:08AM 61.8919 -24.7600 252° West  Level Estimated
09:09AM 61.8548 -25.0027 252° West  Level Estimated
09:10AM 61.8173 -25.2449 252° West  Level Estimated
09:11AM 61.7793 -25.4865 252° West  Level Estimated
09:12AM 61.7410 -25.7274 252° West  Level Estimated
09:13AM 61.7022 -25.9678 251° West  Level Estimated
09:14AM 61.6629 -26.2076 251° West  Level Estimated
09:15AM 61.6233 -26.4467 251° West  Level Estimated
09:16AM 61.5833 -26.6852 251° West  Level Estimated
09:17AM 61.5428 -26.9232 250° West  Level Estimated
09:18AM 61.5019 -27.1604 250° West  Level Estimated
09:19AM 61.4606 -27.3971 250° West  Level Estimated
09:20AM 61.4189 -27.6332 250° West  Level Estimated
09:21AM 61.3768 -27.8686 250° West  Level Estimated
09:22AM 61.3343 -28.1033 249° West  Level Estimated
09:23AM 61.2914 -28.3375 249° West  Level Estimated
09:24AM 61.2481 -28.5710 249° West  Level Estimated
09:25AM 61.2044 -28.8038 249° West  Level Estimated
09:26AM 61.1603 -29.0360 249° West  Level Estimated
09:27AM 61.1158 -29.2675 248° West  Level Estimated
09:28AM 61.0709 -29.4984 248° West  Level Estimated
09:29AM 61.0256 -29.7286 248° West  Level Estimated
09:30AM 60.9799 -29.9582 248° West  Level Estimated
09:31AM 60.9338 -30.1871 248° West  Level Estimated
09:32AM 60.8873 -30.4154 247° West  Level Estimated
09:33AM 60.8405 -30.6430 247° West  Level Estimated
09:34AM 60.7932 -30.8699 247° West  Level Estimated
09:35AM 60.7456 -31.0961 247° West  Level Estimated
09:36AM 60.6976 -31.3217 247° West  Level Estimated
09:37AM 60.6492 -31.5466 246° West  Level Estimated
09:38AM 60.6015 -31.7660 246° West  Level Estimated
09:39AM 60.5535 -31.9847 246° West  Level Estimated
09:40AM 60.5051 -32.2029 246° West  Level Estimated
09:41AM 60.4563 -32.4203 246° West  Level Estimated
09:42AM 60.4072 -32.6371 245° Southwest  Level Estimated
09:43AM 60.3577 -32.8533 245° Southwest  Level Estimated
09:44AM 60.3079 -33.0687 245° Southwest  Level Estimated
09:45AM 60.2577 -33.2836 245° Southwest  Level Estimated
09:46AM 60.2072 -33.4977 245° Southwest  Level Estimated
09:47AM 60.1563 -33.7113 244° Southwest  Level Estimated
09:48AM 60.1051 -33.9241 244° Southwest  Level Estimated
09:49AM 60.0536 -34.1363 244° Southwest  Level Estimated
09:50AM 60.0017 -34.3478 244° Southwest  Level Estimated
09:51AM 59.9495 -34.5587 244° Southwest  Level Estimated
09:52AM 59.8969 -34.7689 244° Southwest  Level Estimated
09:53AM 59.8441 -34.9784 243° Southwest  Level Estimated
09:54AM 59.7908 -35.1873 243° Southwest  Level Estimated
09:55AM 59.7373 -35.3955 243° Southwest  Level Estimated
09:56AM 59.6834 -35.6030 243° Southwest  Level Estimated
09:57AM 59.6292 -35.8098 243° Southwest  Level Estimated
09:58AM 59.5747 -36.0160 242° Southwest  Level Estimated
09:59AM 59.5198 -36.2215 242° Southwest  Level Estimated
10:00AM 59.4646 -36.4264 242° Southwest  Level Estimated
10:01AM 59.4091 -36.6306 242° Southwest  Level Estimated
10:02AM 59.3533 -36.8341 242° Southwest  Level Estimated
10:03AM 59.2972 -37.0369 242° Southwest  Level Estimated
10:04AM 59.2408 -37.2391 241° Southwest  Level Estimated
10:05AM 59.1840 -37.4406 241° Southwest  Level Estimated
10:06AM 59.1270 -37.6414 241° Southwest  Level Estimated
10:07AM 59.0696 -37.8416 241° Southwest  Level Estimated
10:08AM 59.0119 -38.0411 241° Southwest  Level Estimated
10:09AM 58.9539 -38.2399 241° Southwest  Level Estimated
10:10AM 58.8956 -38.4380 240° Southwest  Level Estimated
10:11AM 58.8370 -38.6355 240° Southwest  Level Estimated
10:12AM 58.7781 -38.8323 240° Southwest  Level Estimated
10:13AM 58.7190 -39.0285 240° Southwest  Level Estimated
10:14AM 58.6595 -39.2240 240° Southwest  Level Estimated
10:15AM 58.5997 -39.4188 240° Southwest  Level Estimated
10:16AM 58.5396 -39.6129 239° Southwest  Level Estimated
10:17AM 58.4792 -39.8064 239° Southwest  Level Estimated
10:18AM 58.4186 -39.9992 239° Southwest  Level Estimated
10:19AM 58.3576 -40.1914 239° Southwest  Level Estimated
10:20AM 58.2964 -40.3829 239° Southwest  Level Estimated
10:21AM 58.2349 -40.5737 239° Southwest  Level Estimated
10:22AM 58.1731 -40.7638 238° Southwest  Level Estimated
10:23AM 58.1110 -40.9533 238° Southwest  Level Estimated
10:24AM 58.0486 -41.1422 238° Southwest  Level Estimated
10:25AM 57.9860 -41.3304 238° Southwest  Level Estimated
10:26AM 57.9231 -41.5179 238° Southwest  Level Estimated
10:27AM 57.8599 -41.7047 238° Southwest  Level Estimated
10:28AM 57.7964 -41.8909 237° Southwest  Level Estimated
10:29AM 57.7327 -42.0765 237° Southwest  Level Estimated
10:30AM 57.6687 -42.2614 237° Southwest  Level Estimated
10:31AM 57.6044 -42.4456 237° Southwest  Level Estimated
10:32AM 57.5398 -42.6292 237° Southwest  Level Estimated
10:33AM 57.4750 -42.8122 237° Southwest  Level Estimated
10:34AM 57.4099 -42.9945 237° Southwest  Level Estimated
10:35AM 57.3446 -43.1761 236° Southwest  Level Estimated
10:36AM 57.2790 -43.3571 236° Southwest  Level Estimated
10:37AM 57.2131 -43.5375 236° Southwest  Level Estimated
10:38AM 57.1470 -43.7172 236° Southwest  Level Estimated
10:39AM 57.0806 -43.8963 236° Southwest  Level Estimated
10:40AM 57.0140 -44.0747 236° Southwest  Level Estimated
10:41AM 56.9471 -44.2525 235° Southwest  Level Estimated
10:42AM 56.8800 -44.4296 235° Southwest  Level Estimated
10:43AM 56.8126 -44.6061 235° Southwest  Level Estimated
10:44AM 56.7450 -44.7820 235° Southwest  Level Estimated
10:45AM 56.6771 -44.9573 235° Southwest  Level Estimated
10:46AM 56.6090 -45.1319 235° Southwest  Level Estimated
10:47AM 56.5406 -45.3059 235° Southwest  Level Estimated
10:48AM 56.4720 -45.4792 234° Southwest  Level Estimated
10:49AM 56.4032 -45.6519 234° Southwest  Level Estimated
10:50AM 56.3341 -45.8240 234° Southwest  Level Estimated
10:51AM 56.2650 -45.9948 234° Southwest  Level Estimated
10:52AM 56.1957 -46.1652 234° Southwest  Level Estimated
10:53AM 56.1261 -46.3349 234° Southwest  Level Estimated
10:54AM 56.0563 -46.5041 234° Southwest  Level Estimated
10:55AM 55.9862 -46.6726 233° Southwest  Level Estimated
10:55AM 61.2333 -56.4167 233° Southwest 360 414 37,000  Level Gander Center
10:56AM 55.9160 -46.8405 233° Southwest  Level Estimated
10:56AM 61.1500 -56.6333 231° Southwest 440 506 37,000  Level Gander Center
10:57AM 55.8455 -47.0078 233° Southwest  Level Estimated
10:57AM 61.0833 -56.8167 233° Southwest 450 518 37,000  Level Gander Center
10:58AM 55.7747 -47.1745 233° Southwest  Level Estimated
10:58AM 61.0167 -57.0667 241° Southwest 450 518 37,000  Level Gander Center
10:59AM 55.7038 -47.3406 233° Southwest  Level Estimated
10:59AM 60.9333 -57.2833 232° Southwest 450 518 37,000  Level Gander Center
11:00AM 55.6326 -47.5061 233° Southwest  Level Estimated
11:00AM 60.8833 -57.5000 245° Southwest 460 529 37,000  Level Gander Center
11:01AM 60.8000 -57.7000 230° Southwest 450 518 37,000  Level Gander Center
11:02AM 60.7500 -57.9167 245° Southwest 450 518 37,000  Level Gander Center
11:03AM 60.6667 -58.1333 232° Southwest 450 518 37,000  Level Gander Center
11:04AM 60.5833 -58.3000 225° Southwest 450 518 37,000  Level Gander Center
11:05AM 60.5167 -58.5167 238° Southwest 450 518 37,000  Level Gander Center
11:06AM 60.4500 -58.7167 236° Southwest 440 506 37,000  Level Gander Center
11:07AM 60.3833 -58.9333 238° Southwest 440 506 37,000  Level Gander Center
11:08AM 60.3000 -59.1333 230° Southwest 450 518 37,000  Level Gander Center
11:09AM 60.2333 -59.3333 236° Southwest 450 518 37,000  Level Gander Center
11:10AM 60.1500 -59.5500 232° Southwest 450 518 37,000  Level Gander Center
11:11AM 60.0833 -59.7167 231° Southwest 450 518 37,000  Level Montreal Center
11:12AM 60.0167 -59.9000 234° Southwest 450 518 37,000  Level Montreal Center
11:13AM 59.9667 -60.1500 248° West 450 518 37,000  Level Montreal Center
11:14AM 59.9333 -60.3833 254° West 450 518 37,000  Level Montreal Center
11:15AM 59.9000 -60.5667 250° West 450 518 37,000  Level Montreal Center
11:16AM 59.7833 -60.7500 218° Southwest 440 506 37,000  Level Montreal Center
11:17AM 59.7000 -60.8167 202° Southwest 450 518 37,000  Level Montreal Center
11:18AM 59.5833 -60.9167 203° Southwest 450 518 37,000  Level Montreal Center
11:19AM 59.4333 -61.0500 204° Southwest 450 518 37,000  Level Gander Center
11:20AM 59.3167 -61.1500 204° Southwest 450 518 37,000  Level Gander Center
11:21AM 59.2000 -61.2500 204° Southwest 450 518 37,000  Level Gander Center
11:22AM 59.0833 -61.3500 204° Southwest 460 529 37,000  Level Gander Center
11:23AM 58.9500 -61.4500 201° Southwest 450 518 37,000  Level Gander Center
11:24AM 58.8333 -61.5000 193° South 450 518 37,000  Level Gander Center
11:25AM 58.7167 -61.6000 204° Southwest 460 529 37,000  Level Gander Center
11:26AM 58.6000 -61.7000 204° Southwest 450 518 37,000  Level Gander Center
11:27AM 58.4833 -61.7667 197° South 460 529 37,000  Level Gander Center
11:28AM 58.3667 -61.8500 201° Southwest 450 518 37,000  Level Gander Center
11:29AM 58.2500 -61.9500 204° Southwest 440 506 37,000  Level Gander Center
11:30AM 58.1333 -62.0333 201° Southwest 460 529 37,000  Level Gander Center
11:31AM 58.0167 -62.1000 197° South 460 529 37,000  Level Gander Center
11:32AM 57.9000 -62.2000 204° Southwest 460 529 37,000  Level Gander Center
11:33AM 57.7833 -62.2833 201° Southwest 460 529 37,000  Level Gander Center
11:34AM 57.6667 -62.3500 197° South 460 529 37,000  Level Gander Center
11:35AM 57.5500 -62.4333 201° Southwest 460 529 37,000  Level Gander Center
11:36AM 57.4167 -62.5167 199° South 460 529 37,000  Level Gander Center
11:37AM 57.3000 -62.6167 205° Southwest 460 529 37,000  Level Gander Center
11:38AM 57.1833 -62.7000 201° Southwest 450 518 37,000  Level Gander Center
11:39AM 57.0667 -62.7500 193° South 450 518 37,000  Level Gander Center
11:40AM 56.9500 -62.8500 205° Southwest 450 518 37,000  Level Gander Center
11:41AM 56.8333 -62.9333 201° Southwest 460 529 37,000  Level Gander Center
11:42AM 56.7000 -62.9833 192° South 440 506 37,000  Level Gander Center
11:43AM 56.5833 -63.0667 201° Southwest 450 518 37,000  Level Gander Center
11:44AM 56.4667 -63.1500 202° Southwest 460 529 37,000  Level Gander Center
11:45AM 56.3500 -63.2167 198° South 450 518 37,000  Level Gander Center
11:46AM 56.2333 -63.3000 202° Southwest 450 518 37,000  Level Gander Center
11:47AM 56.1167 -63.3833 202° Southwest 440 506 37,000  Level Gander Center
11:48AM 56.0167 -63.4333 196° South 440 506 37,000  Level Gander Center
11:49AM 55.8833 -63.5167 199° South 440 506 37,000  Level Gander Center
11:50AM 55.7833 -63.6000 205° Southwest 450 518 37,000  Level Gander Center
11:51AM 55.6500 -63.6500 192° South 450 518 37,000  Level Gander Center
11:52AM 55.5500 -63.7333 205° Southwest 450 518 37,000  Level Gander Center
11:53AM 55.4167 -63.8167 200° South 450 518 37,000  Level Gander Center
11:54AM 55.3000 -63.8667 194° South 440 506 37,000  Level Gander Center
11:55AM 55.1833 -63.9500 202° Southwest 450 518 37,000  Level Gander Center
11:56AM 55.0667 -64.0333 202° Southwest 440 506 37,000  Level Gander Center
11:57AM 54.9500 -64.0833 194° South 440 506 37,000  Level Gander Center
11:58AM 54.8333 -64.1500 198° South 440 506 37,000  Level Gander Center
11:59AM 54.7167 -64.2333 202° Southwest 440 506 37,000  Level Gander Center
12:00PM 54.6000 -64.2833 194° South 440 506 37,000  Level Gander Center
12:01PM 54.4833 -64.3667 203° Southwest 450 518 37,000  Level Gander Center
12:02PM 54.3500 -64.4333 196° South 440 506 37,000  Level Gander Center
12:03PM 54.2500 -64.4833 196° South 440 506 37,000  Level Gander Center
12:04PM 54.1333 -64.5667 203° Southwest 440 506 37,000  Level Gander Center
12:05PM 54.0167 -64.6167 194° South 440 506 37,000  Level Gander Center
12:06PM 53.9167 -64.6833 201° Southwest 430 495 37,000  Level Gander Center
12:07PM 53.7833 -64.7667 200° South 430 495 37,000  Level Gander Center
12:08PM 53.6833 -64.8167 196° South 430 495 37,000  Level Gander Center
12:09PM 53.5667 -64.8833 199° South 430 495 37,000  Level Gander Center
12:10PM 53.4333 -64.9333 193° South 440 506 37,000  Level Gander Center
12:11PM 53.3333 -65.0000 202° Southwest 420 483 37,000  Level Gander Center
12:12PM 53.2167 -65.0500 194° South 420 483 37,000  Level Gander Center
12:13PM 53.1167 -65.1333 207° Southwest 420 483 37,000  Level Gander Center
12:14PM 53.0000 -65.2000 199° South 440 506 37,000  Level Gander Center
12:15PM 52.8833 -65.2500 195° South 430 495 37,000  Level Gander Center
12:16PM 52.7667 -65.3167 199° South 420 483 37,000  Level Gander Center
12:17PM 52.6500 -65.3667 195° South 420 483 37,000 -300 Level Gander Center
12:18PM 52.5500 -65.4333 202° Southwest 420 483 36,500 -540 Descending Gander Center
12:19PM 52.4333 -65.4833 195° South 420 483 36,000 -300 Descending Gander Center
12:20PM 52.3333 -65.5500 202° Southwest 420 483 36,000  Level Gander Center
12:21PM 52.2167 -65.6000 195° South 420 483 36,000  Level Gander Center
12:22PM 52.1000 -65.6667 199° South 420 483 36,000  Level Gander Center
12:23PM 52.0333 -65.7000 197° South 410 472 36,000  Level Moncton Center
12:24PM 51.9167 -65.7500 195° South 410 472 36,000  Level Moncton Center
12:25PM 51.8167 -65.8000 197° South 410 472 36,000  Level Moncton Center
12:26PM 51.6833 -65.8500 193° South 410 472 36,000  Level Moncton Center
12:27PM 51.5833 -65.9000 197° South 410 472 36,000  Level Moncton Center
12:28PM 51.4833 -65.9500 197° South 400 460 36,000  Level Moncton Center
12:29PM 51.3833 -66.0000 197° South 400 460 36,000  Level Moncton Center
12:30PM 51.2667 -66.0833 204° Southwest 400 460 36,000  Level Moncton Center
12:31PM 51.1667 -66.1333 197° South 390 449 36,000  Level Moncton Center
12:32PM 51.0667 -66.1833 197° South 390 449 36,000  Level Moncton Center
12:33PM 50.9667 -66.2333 197° South 390 449 36,000  Level Moncton Center
12:34PM 50.8667 -66.2833 198° South 390 449 36,000  Level Moncton Center
12:35PM 50.7667 -66.3333 198° South 390 449 36,000  Level Moncton Center
12:36PM 50.6500 -66.3833 195° South 390 449 36,000  Level Moncton Center
12:37PM 50.5500 -66.4333 198° South 390 449 36,000  Level Moncton Center
12:38PM 50.4500 -66.4667 192° South 390 449 36,000  Level Moncton Center
12:39PM 50.3500 -66.5167 198° South 390 449 36,000  Level Moncton Center
12:40PM 50.2333 -66.5667 195° South 390 449 36,000  Level Moncton Center
12:41PM 50.1333 -66.6167 198° South 370 426 36,000  Level Moncton Center
12:42PM 50.0167 -66.6667 195° South 390 449 36,000  Level Moncton Center
12:43PM 49.9333 -66.7167 201° Southwest 390 449 36,000  Level Moncton Center
12:44PM 49.8167 -66.7667 195° South 380 437 36,000  Level Moncton Center
12:45PM 49.7167 -66.8000 192° South 380 437 36,000  Level Moncton Center
12:46PM 49.6167 -66.8500 198° South 370 426 36,000  Level Moncton Center
12:47PM 49.5333 -66.9000 201° Southwest 370 426 36,000  Level Moncton Center
12:48PM 49.4333 -66.9500 198° South 370 426 36,000  Level Moncton Center
12:49PM 49.3333 -67.0000 198° South 370 426 36,000  Level Moncton Center
12:50PM 49.2333 -67.0333 192° South 370 426 36,000  Level Moncton Center
12:51PM 49.1333 -67.0833 198° South 370 426 36,000  Level Moncton Center
12:52PM 49.0167 -67.1333 196° South 370 426 36,000  Level Moncton Center
12:53PM 48.9167 -67.1667 192° South 370 426 36,000  Level Moncton Center
12:54PM 48.8167 -67.2167 198° South 370 426 36,000  Level Moncton Center
12:55PM 48.7333 -67.2667 202° Southwest 370 426 36,000  Level Moncton Center
12:56PM 48.6333 -67.3167 198° South 370 426 36,000  Level Moncton Center
12:57PM 48.5333 -67.3333 186° South 370 426 36,000  Level Moncton Center
12:58PM 48.4333 -67.3833 198° South 370 426 36,000  Level Moncton Center
12:59PM 48.3333 -67.4167 192° South 360 414 36,000  Level Moncton Center
01:00PM 48.2333 -67.4667 198° South 360 414 36,000  Level Moncton Center
01:01PM 48.1500 -67.5167 202° Southwest 360 414 36,000  Level Moncton Center
01:02PM 48.0333 -67.5500 191° South 360 414 36,000  Level Moncton Center
01:03PM 47.9333 -67.6000 199° South 360 414 36,000  Level Moncton Center
01:04PM 47.8500 -67.6333 195° South 360 414 36,000  Level Moncton Center
01:05PM 47.7500 -67.6833 199° South 360 414 36,000  Level Moncton Center
01:06PM 47.6500 -67.7333 199° South 360 414 36,000  Level Moncton Center
01:07PM 47.5667 -67.7667 195° South 360 414 36,000  Level Moncton Center
01:08PM 47.4667 -67.8167 199° South 360 414 36,000  Level Moncton Center
01:09PM 47.3667 -67.8500 193° South 360 414 36,000  Level Moncton Center
01:10PM 47.2667 -67.8833 193° South 360 414 36,000  Level Moncton Center
01:10PM 47.2217 -67.9117 203° Southwest 363 418 36,000  Level Boston Center
01:11PM 47.1242 -67.9519 196° South 365 420 36,000  Level Boston Center
01:12PM 47.0306 -67.9906 196° South 364 419 36,000  Level Boston Center
01:13PM 46.9314 -68.0297 195° South 367 422 36,000  Level Boston Center
01:14PM 46.8319 -68.0733 197° South 369 425 36,000  Level Boston Center
01:15PM 46.7325 -68.1114 195° South 367 422 36,000  Level Boston Center
01:16PM 46.6353 -68.1531 196° South 364 419 36,000  Level Boston Center
01:17PM 46.5364 -68.1936 196° South 366 421 36,000  Level Boston Center
01:18PM 46.4383 -68.2336 196° South 364 419 36,000  Level Boston Center
01:19PM 46.3397 -68.2753 196° South 366 421 36,000  Level Boston Center
01:20PM 46.2422 -68.3158 196° South 364 419 36,000  Level Boston Center
01:21PM 46.1436 -68.3553 195° South 364 419 36,000  Level Boston Center
01:22PM 46.0461 -68.3961 196° South 362 417 36,000  Level Boston Center
01:23PM 45.9333 -68.4414 196° South 362 417 36,000  Level Boston Center
01:29PM 45.6368 -68.5602 196° South 369 425 36,000  Level FlightAware ADS-B (CYQI)
01:31PM 45.1949 -68.7357 196° South 369 425 36,000  Level FlightAware ADS-B (CYQI)
01:32PM 45.1107 -68.7689 196° South 371 427 36,000  Level FlightAware ADS-B (CYQI)
01:32PM 45.0480 -68.7934 195° South 372 428 36,000  Level FlightAware ADS-B (CYQI)
01:33PM 44.9804 -68.8249 198° South 348 400 36,000  Level FlightAware ADS-B (CYQI)
01:33PM 44.9379 -68.8671 215° Southwest 343 395 36,000  Level FlightAware ADS-B (CYQI)
01:34PM 44.8872 -68.9178 215° Southwest 346 398 36,000  Level FlightAware ADS-B (CYQI)
01:35PM 44.8412 -68.9637 215° Southwest 345 397 36,000  Level FlightAware ADS-B (CYQI)
01:35PM 44.7948 -69.0098 215° Southwest 346 398 36,000  Level FlightAware ADS-B (CYQI)
01:36PM 44.7456 -69.0587 215° Southwest 346 398 36,000  Level FlightAware ADS-B (CYQI)
01:37PM 44.6837 -69.1199 215° Southwest 347 399 36,000  Level FlightAware ADS-B (CYQI)
01:38PM 44.6141 -69.1886 215° Southwest 347 399 36,000  Level FlightAware ADS-B (CYQI)
01:38PM 44.5555 -69.2462 215° Southwest 346 398 36,000  Level FlightAware ADS-B (CYQI)
01:39PM 44.4831 -69.3173 215° Southwest 344 396 36,000  Level FlightAware ADS-B (CYQI)
01:40PM 44.4338 -69.3655 215° Southwest 342 394 36,000  Level FlightAware ADS-B (CYQI)
01:41PM 44.3804 -69.4177 215° Southwest 340 391 36,000  Level FlightAware ADS-B (CYQI)
01:41PM 44.3323 -69.4645 215° Southwest 339 390 36,000  Level FlightAware ADS-B (CYQI)
01:42PM 44.2980 -69.4980 215° Southwest 338 389 36,000  Level FlightAware ADS-B
01:42PM 44.2479 -69.5466 215° Southwest 339 390 36,000  Level FlightAware ADS-B
01:43PM 44.1798 -69.6126 215° Southwest 341 392 36,000  Level FlightAware ADS-B (CYQI)
01:44PM 44.1439 -69.6473 215° Southwest 335 386 36,000  Level FlightAware ADS-B
01:44PM 44.1055 -69.6843 215° Southwest 334 384 36,000  Level FlightAware ADS-B
01:45PM 44.0513 -69.7365 215° Southwest 333 383 36,000  Level FlightAware ADS-B
01:46PM 43.9890 -69.7964 215° Southwest 334 384 36,000  Level FlightAware ADS-B
01:46PM 43.9363 -69.8470 215° Southwest 334 384 36,000  Level FlightAware ADS-B
01:47PM 43.9377 -69.8456 35° Northeast 341 392 36,000  Level FlightAware ADS-B (KBOS)
01:47PM 43.8638 -69.9164 215° Southwest 334 384 36,000  Level FlightAware ADS-B
01:48PM 43.8202 -69.9579 215° Southwest 334 384 36,000  Level FlightAware ADS-B
01:49PM 43.7693 -70.0063 215° Southwest 334 384 36,000  Level FlightAware ADS-B
01:49PM 43.7163 -70.0567 214° Southwest 334 384 36,000  Level FlightAware ADS-B
01:50PM 43.6775 -70.0935 214° Southwest 334 384 36,000  Level FlightAware ADS-B
01:50PM 43.6386 -70.1303 214° Southwest 336 387 36,000  Level FlightAware ADS-B
01:51PM 43.5992 -70.1676 214° Southwest 336 387 36,000  Level FlightAware ADS-B
01:51PM 43.5517 -70.2124 214° Southwest 337 388 36,000  Level FlightAware ADS-B
01:52PM 43.5114 -70.2504 214° Southwest 345 397 36,000  Level FlightAware ADS-B (KBOS)
01:53PM 43.4577 -70.3009 214° Southwest 348 400 36,000  Level FlightAware ADS-B (KBOS)
01:53PM 43.4040 -70.3513 214° Southwest 350 403 36,000  Level FlightAware ADS-B (KBOS)
01:54PM 43.3502 -70.4016 214° Southwest 352 405 36,000  Level FlightAware ADS-B (KBOS)
01:55PM 43.3036 -70.4451 214° Southwest 353 406 36,000  Level FlightAware ADS-B
01:55PM 43.2623 -70.4836 214° Southwest 356 410 36,000  Level FlightAware ADS-B
01:56PM 43.2125 -70.5301 214° Southwest 356 410 36,000  Level FlightAware ADS-B
01:56PM 43.1507 -70.5874 214° Southwest 356 410 36,000  Level FlightAware ADS-B (KBOS)
01:57PM 43.0904 -70.6432 214° Southwest 355 409 36,000  Level FlightAware ADS-B
01:58PM 43.0388 -70.6910 214° Southwest 355 409 36,000  Level FlightAware ADS-B
01:58PM 42.9829 -70.7425 214° Southwest 354 407 36,000  Level FlightAware ADS-B
01:59PM 42.9344 -70.7871 214° Southwest 352 405 36,000  Level FlightAware ADS-B
02:00PM 42.8963 -70.8225 214° Southwest 344 396 36,000  Level FlightAware ADS-B
02:00PM 42.8468 -70.8755 218° Southwest 348 400 36,000  Level FlightAware ADS-B (KBOS)
02:01PM 42.8004 -70.9254 218° Southwest 349 402 36,000  Level FlightAware ADS-B
02:01PM 42.7497 -70.9787 218° Southwest 350 403 36,000  Level FlightAware ADS-B
02:02PM 42.6922 -71.0389 218° Southwest 352 405 36,000  Level FlightAware ADS-B (KBOS)
02:03PM 42.6331 -71.1006 218° Southwest 353 406 36,000  Level FlightAware ADS-B (KBOS)
02:04PM 42.5805 -71.1552 217° Southwest 354 407 36,000  Level FlightAware ADS-B (KBOS)
02:04PM 42.5295 -71.2082 217° Southwest 349 402 36,000  Level FlightAware ADS-B
02:05PM 42.4721 -71.2676 217° Southwest 357 411 36,000  Level FlightAware ADS-B
02:06PM 42.4157 -71.3257 217° Southwest 356 410 36,000  Level FlightAware ADS-B (KBOS)
02:06PM 42.3771 -71.3656 217° Southwest 355 409 36,000  Level FlightAware ADS-B (KOWD)
02:06PM 42.3665 -71.3765 217° Southwest 355 409 36,000  Level FlightAware ADS-B
02:07PM 42.3224 -71.4219 217° Southwest 353 406 36,000  Level FlightAware ADS-B
02:08PM 42.2719 -71.4737 217° Southwest 354 407 36,000  Level FlightAware ADS-B
02:08PM 42.2542 -71.4919 217° Southwest 348 400 36,000  Level FlightAware ADS-B
02:08PM 42.2069 -71.5403 217° Southwest 355 409 36,000  Level FlightAware ADS-B (KBOS)
02:09PM 42.1775 -71.5703 217° Southwest 349 402 36,000  Level FlightAware ADS-B
02:09PM 42.1499 -71.5985 217° Southwest 355 409 36,000  Level FlightAware ADS-B (KOWD)
02:10PM 42.1018 -71.6475 217° Southwest 355 409 36,000  Level FlightAware ADS-B (KOWD)
02:10PM 42.0918 -71.6578 217° Southwest 356 410 36,000  Level FlightAware ADS-B (KOWD)
02:11PM 42.0185 -71.7322 217° Southwest 350 403 36,000  Level FlightAware ADS-B
02:11PM 42.0051 -71.7458 217° Southwest 357 411 36,000  Level FlightAware ADS-B (KOWD)
02:12PM 41.9663 -71.7852 217° Southwest 358 412 36,000  Level FlightAware ADS-B (KOWD)
02:12PM 41.9149 -71.8372 217° Southwest 360 414 36,000  Level FlightAware ADS-B
02:13PM 41.8598 -71.8929 217° Southwest 361 415 36,000  Level FlightAware ADS-B
02:13PM 41.8185 -71.9345 217° Southwest 363 418 36,000  Level FlightAware ADS-B (KSNC)
02:14PM 41.8308 -71.9221 37° Northeast 363 418 36,000  Level FlightAware ADS-B (KOWD)
02:15PM 41.6912 -72.0624 217° Southwest 363 418 36,000  Level FlightAware ADS-B
02:16PM 41.6249 -72.1287 217° Southwest 362 417 36,000  Level FlightAware ADS-B
02:16PM 41.5743 -72.1792 217° Southwest 361 415 36,000  Level FlightAware ADS-B
02:17PM 41.5230 -72.2303 217° Southwest 361 415 36,000  Level FlightAware ADS-B
02:18PM 41.5252 -72.2281 37° Northeast 360 414 36,000  Level FlightAware ADS-B (KOWD)
02:18PM 41.4328 -72.3199 217° Southwest 359 413 36,000  Level FlightAware ADS-B
02:19PM 41.3810 -72.3712 217° Southwest 360 414 36,000  Level FlightAware ADS-B
02:19PM 41.3394 -72.4123 217° Southwest 362 417 36,000  Level FlightAware ADS-B (KSNC)
02:20PM 41.2909 -72.4601 217° Southwest 362 417 36,000  Level FlightAware ADS-B (KSNC)
02:21PM 41.2335 -72.5167 217° Southwest 361 415 36,000  Level FlightAware ADS-B (KSNC)
02:21PM 41.1721 -72.5769 216° Southwest 361 415 36,000  Level FlightAware ADS-B (KSNC)
02:22PM 41.1120 -72.6359 216° Southwest 362 417 36,000  Level FlightAware ADS-B (KSNC)
02:23PM 41.0337 -72.7125 216° Southwest 365 420 36,000  Level FlightAware ADS-B (KSNC)
02:24PM 40.9721 -72.7726 216° Southwest 364 419 36,000  Level FlightAware ADS-B (KSNC)
02:25PM 40.9097 -72.8332 216° Southwest 363 418 36,000  Level FlightAware ADS-B (KSNC)
02:25PM 40.8492 -72.8919 216° Southwest 361 415 36,000  Level FlightAware ADS-B (KSNC)
02:26PM 40.7959 -72.9435 216° Southwest 361 415 36,000  Level FlightAware ADS-B (KSNC)
02:27PM 40.7611 -72.9771 216° Southwest 361 415 36,000  Level FlightAware ADS-B (KSNC)
02:27PM 40.7394 -72.9981 216° Southwest 362 417 36,000  Level FlightAware ADS-B (KSNC)
02:28PM 40.6487 -73.0856 216° Southwest 363 418 36,000  Level FlightAware ADS-B (KSNC)
02:29PM 40.5941 -73.1379 216° Southwest 366 421 36,000  Level FlightAware ADS-B (KSNC)
02:29PM 40.5801 -73.1513 216° Southwest 360 414 36,000  Level FlightAware ADS-B (KWWD)
02:29PM 40.5387 -73.1910 216° Southwest 366 421 36,000  Level FlightAware ADS-B (KSNC)
02:29PM 40.5255 -73.2037 216° Southwest 361 415 36,000  Level FlightAware ADS-B (KWWD)
02:30PM 40.5016 -73.2266 216° Southwest 361 415 36,000  Level FlightAware ADS-B (KWWD)
02:30PM 40.4586 -73.2677 216° Southwest 366 421 36,000  Level FlightAware ADS-B (KSNC)
02:30PM 40.4425 -73.2831 216° Southwest 366 421 36,000  Level FlightAware ADS-B (KSNC)
02:31PM 40.3885 -73.3345 216° Southwest 366 421 36,000  Level FlightAware ADS-B (KSNC)
02:32PM 40.3485 -73.3726 216° Southwest 359 413 36,000  Level FlightAware ADS-B (KWWD)
02:32PM 40.2918 -73.4265 216° Southwest 366 421 36,000  Level FlightAware ADS-B (KSNC)
02:33PM 40.2637 -73.4531 216° Southwest 359 413 36,000  Level FlightAware ADS-B (KWWD)
02:33PM 40.2265 -73.4883 216° Southwest 361 415 36,000  Level FlightAware ADS-B (KWWD)
02:34PM 40.1866 -73.5261 216° Southwest 368 423 36,000  Level FlightAware ADS-B (KSNC)
02:34PM 40.1675 -73.5442 216° Southwest 361 415 36,000  Level FlightAware ADS-B (KWWD)
02:34PM 40.1277 -73.5817 216° Southwest 360 414 36,000  Level FlightAware ADS-B (KWWD)
02:36PM 40.0198 -73.6833 216° Southwest 360 414 36,000  Level FlightAware ADS-B (KWWD)
02:36PM 39.9770 -73.7234 216° Southwest 360 414 36,000  Level FlightAware ADS-B (KWWD)
02:37PM 39.9344 -73.7634 216° Southwest 361 415 36,000  Level FlightAware ADS-B (KWWD)
02:37PM 39.8800 -73.8143 216° Southwest 361 415 36,000  Level FlightAware ADS-B (KWWD)
02:38PM 39.8236 -73.8669 216° Southwest 360 414 36,000  Level FlightAware ADS-B (KWWD)
02:39PM 39.7275 -73.9564 216° Southwest 359 413 36,000  Level FlightAware ADS-B (KWWD)
02:40PM 39.6722 -74.0076 216° Southwest 360 414 36,000  Level FlightAware ADS-B (KWWD)
02:41PM 39.6221 -74.0541 216° Southwest 369 425 36,000  Level FlightAware ADS-B
02:42PM 39.5246 -74.1442 215° Southwest 368 423 36,000  Level FlightAware ADS-B
02:42PM 39.4505 -74.2124 215° Southwest 361 415 36,000  Level FlightAware ADS-B (KWWD)
02:43PM 39.4075 -74.2520 215° Southwest 367 422 36,000  Level FlightAware ADS-B
02:44PM 39.3530 -74.3020 215° Southwest 369 425 36,000  Level FlightAware ADS-B
02:44PM 39.3094 -74.3419 215° Southwest 362 417 36,000  Level FlightAware ADS-B (KWWD)
02:45PM 39.2575 -74.3895 215° Southwest 367 422 36,000  Level FlightAware ADS-B
02:45PM 39.1977 -74.4440 215° Southwest 361 415 36,000  Level FlightAware ADS-B (KWWD)
02:46PM 39.1429 -74.4939 215° Southwest 361 415 36,000  Level FlightAware ADS-B (KWWD)
02:47PM 39.0884 -74.5434 215° Southwest 360 414 36,000  Level FlightAware ADS-B (KWWD)
02:48PM 39.0223 -74.6034 215° Southwest 359 413 36,000  Level FlightAware ADS-B (KWWD)
02:48PM 39.0510 -74.5775 35° Northeast 367 422 36,000  Level FlightAware ADS-B
02:49PM 38.9379 -74.6797 215° Southwest 363 418 36,000  Level FlightAware ADS-B (KWWD)
02:49PM 38.8839 -74.7285 215° Southwest 359 413 36,000  Level FlightAware ADS-B (KWWD)
02:50PM 38.8377 -74.7701 215° Southwest 365 420 36,000  Level FlightAware ADS-B
02:50PM 38.7968 -74.8070 215° Southwest 359 413 36,000  Level FlightAware ADS-B (KWWD)
02:51PM 38.7504 -74.8485 215° Southwest 368 423 36,000  Level FlightAware ADS-B
02:51PM 38.7234 -74.8728 215° Southwest 362 417 36,000  Level FlightAware ADS-B (KWWD)
02:52PM 38.7195 -74.8763 215° Southwest 369 425 36,000  Level FlightAware ADS-B (KSBY)
02:52PM 38.6309 -74.9556 215° Southwest 354 407 36,000  Level FlightAware ADS-B (KWWD)
02:53PM 38.5780 -75.0028 215° Southwest 358 412 36,000  Level FlightAware ADS-B (KWWD)
02:54PM 38.5253 -75.0498 215° Southwest 355 409 36,000  Level FlightAware ADS-B (KWWD)
02:54PM 38.4683 -75.1005 215° Southwest 356 410 36,000  Level FlightAware ADS-B (KWWD)
02:55PM 38.4147 -75.1481 215° Southwest 357 411 36,000  Level FlightAware ADS-B (KWWD)
02:56PM 38.3606 -75.1960 215° Southwest 358 412 36,000  Level FlightAware ADS-B (KWWD)
02:56PM 38.3063 -75.2441 215° Southwest 356 410 36,000  Level FlightAware ADS-B (KWWD)
02:57PM 38.2514 -75.2924 215° Southwest 350 403 36,000  Level FlightAware ADS-B (KWWD)
02:58PM 38.1928 -75.3335 209° Southwest 354 407 36,000  Level FlightAware ADS-B (KWWD)
02:58PM 38.1369 -75.3725 209° Southwest 348 400 36,000  Level FlightAware ADS-B (KWWD)
02:59PM 38.0820 -75.4109 209° Southwest 348 400 36,000  Level FlightAware ADS-B (KWWD)
02:59PM 38.0354 -75.4433 209° Southwest 345 397 36,000  Level FlightAware ADS-B (KSBY)
03:00PM 37.9773 -75.4837 209° Southwest 345 397 36,000  Level FlightAware ADS-B (KSBY)
03:01PM 37.9243 -75.5205 209° Southwest 343 395 36,000  Level FlightAware ADS-B (KSBY)
03:02PM 37.8583 -75.5663 209° Southwest 335 386 36,000  Level FlightAware ADS-B (KWWD)
03:02PM 37.8482 -75.5733 209° Southwest 342 394 36,000  Level FlightAware ADS-B (KSBY)
03:02PM 37.8047 -75.6034 209° Southwest 335 386 36,000  Level FlightAware ADS-B (KWWD)
03:03PM 37.7466 -75.6436 209° Southwest 335 386 36,000  Level FlightAware ADS-B (KWWD)
03:04PM 37.6934 -75.6804 209° Southwest 334 384 36,000  Level FlightAware ADS-B (KWWD)
03:04PM 37.6367 -75.7194 209° Southwest 333 383 36,000  Level FlightAware ADS-B (KWWD)
03:05PM 37.5884 -75.7526 209° Southwest 334 384 36,000  Level FlightAware ADS-B (KWWD)
03:06PM 37.5254 -75.7959 209° Southwest 336 387 36,000  Level FlightAware ADS-B (KWWD)
03:06PM 37.4736 -75.8314 209° Southwest 334 384 36,000  Level FlightAware ADS-B (KWWD)
03:07PM 37.4132 -75.8727 209° Southwest 331 381 36,000  Level FlightAware ADS-B (KWWD)
03:08PM 37.3609 -75.9085 209° Southwest 330 380 36,000  Level FlightAware ADS-B (KWWD)
03:08PM 37.3036 -75.9476 208° Southwest 331 381 36,000  Level FlightAware ADS-B (KWWD)
03:09PM 37.2543 -75.9811 208° Southwest 331 381 36,000  Level FlightAware ADS-B (KWWD)
03:10PM 37.1975 -76.0198 208° Southwest 332 382 36,000  Level FlightAware ADS-B (KWWD)
03:10PM 37.1209 -76.0718 208° Southwest 333 383 36,000  Level FlightAware ADS-B (KWWD)
03:11PM 37.0756 -76.1024 208° Southwest 335 386 36,000  Level FlightAware ADS-B (KWWD)
03:12PM 36.9781 -76.1683 208° Southwest 335 386 36,000  Level FlightAware ADS-B (KWWD)
03:13PM 36.9128 -76.2123 208° Southwest 335 386 36,000  Level FlightAware ADS-B (KWWD)
03:14PM 36.8615 -76.2469 208° Southwest 335 386 36,000  Level FlightAware ADS-B (KWWD)
03:14PM 36.8163 -76.2772 208° Southwest 336 387 36,000  Level FlightAware ADS-B (KWWD)
03:18PM 36.5012 -76.4878 208° Southwest 336 387 36,000  Level FlightAware ADS-B (KWWD)
03:19PM 36.3858 -76.5672 208° Southwest 349 402 36,000  Level Washington Center
03:21PM 36.2618 -76.6441 207° Southwest  Level FlightAware Approximate
03:21PM 36.2181 -76.6733 207° Southwest 349 402 36,000  Level Washington Center
03:27PM 35.7274 -76.9968 207° Southwest 348 400 36,000  Level FlightAware ADS-B
03:28PM 35.6731 -77.0321 208° Southwest 348 400 36,000  Level FlightAware ADS-B
03:28PM 35.6134 -77.0709 208° Southwest 346 398 36,000  Level FlightAware ADS-B
03:29PM 35.5590 -77.1061 208° Southwest 346 398 36,000  Level FlightAware ADS-B
03:30PM 35.5039 -77.1418 208° Southwest 348 400 36,000  Level FlightAware ADS-B
03:30PM 35.4431 -77.1809 208° Southwest 356 410 36,000  Level FlightAware ADS-B
03:31PM 35.3903 -77.2135 207° Southwest 356 410 36,000  Level FlightAware ADS-B
03:32PM 35.3205 -77.2402 197° South 356 410 36,000  Level FlightAware ADS-B
03:32PM 35.2569 -77.2643 197° South 358 412 36,000  Level FlightAware ADS-B
03:33PM 35.1659 -77.2988 197° South 358 412 36,000  Level FlightAware ADS-B
03:34PM 35.0988 -77.3242 197° South 362 417 36,000  Level FlightAware ADS-B
03:35PM 35.0364 -77.3478 197° South 363 418 36,000  Level FlightAware ADS-B
03:35PM 34.9724 -77.3718 197° South 366 421 36,000  Level FlightAware ADS-B
03:36PM 34.9058 -77.3969 197° South 364 419 36,000  Level FlightAware ADS-B
03:37PM 34.8417 -77.4209 197° South 366 421 36,000  Level FlightAware ADS-B
03:37PM 34.7767 -77.4454 197° South 371 427 36,000  Level FlightAware ADS-B
03:38PM 34.7159 -77.4681 197° South 370 426 36,000  Level FlightAware ADS-B
03:39PM 34.6457 -77.4943 197° South 367 422 36,000  Level FlightAware ADS-B
03:39PM 34.5838 -77.5174 197° South 369 425 36,000  Level FlightAware ADS-B
03:40PM 34.5178 -77.5419 197° South 368 423 36,000  Level FlightAware ADS-B
03:40PM 34.4681 -77.5603 197° South 368 423 36,000  Level FlightAware ADS-B
03:42PM 34.3553 -77.6022 197° South 366 421 36,000  Level FlightAware ADS-B
03:42PM 34.2874 -77.6274 197° South 367 422 36,000  Level FlightAware ADS-B
03:43PM 34.2323 -77.6478 197° South 368 423 36,000  Level FlightAware ADS-B
03:44PM 34.1605 -77.6744 197° South 370 426 36,000  Level FlightAware ADS-B
03:44PM 34.1033 -77.6961 197° South 368 423 36,000  Level Washington Center
03:45PM 33.9875 -77.7358 196° South 373 429 36,000  Level Jacksonville Center
03:46PM 33.8889 -77.7717 197° South 389 448 36,000  Level Jacksonville Center
03:47PM 33.7903 -77.8100 198° South 382 440 36,000  Level Jacksonville Center
03:48PM 33.6914 -77.8406 194° South 376 433 36,000  Level Jacksonville Center
03:49PM 33.6011 -77.8783 199° South 376 433 36,000  Level Jacksonville Center
03:50PM 33.5003 -77.9139 196° South 376 433 36,000  Level Jacksonville Center
03:51PM 33.4017 -77.9517 198° South 376 433 36,000  Level Jacksonville Center
03:52PM 33.3028 -77.9869 197° South 376 433 36,000  Level Jacksonville Center
03:53PM 33.2019 -78.0222 196° South 376 433 36,000  Level Jacksonville Center
03:54PM 33.1031 -78.0575 197° South 376 433 36,000  Level Jacksonville Center
03:55PM 33.0044 -78.0950 198° South 376 433 36,000  Level Jacksonville Center
03:56PM 32.9014 -78.1278 195° South 376 433 36,000  Level Jacksonville Center
03:57PM 32.8006 -78.1675 198° South 376 433 36,000  Level Jacksonville Center
03:58PM 32.6997 -78.2025 196° South 376 433 36,000  Level Jacksonville Center
03:59PM 32.5964 -78.2375 196° South 381 438 36,000  Level Jacksonville Center
04:00PM 32.4933 -78.2722 196° South 381 438 36,000  Level Jacksonville Center
04:01PM 32.3906 -78.3094 197° South 381 438 36,000  Level Jacksonville Center
04:02PM 32.2897 -78.3489 198° South 386 444 36,000  Level Jacksonville Center
04:03PM 32.1825 -78.3886 197° South 391 450 36,000  Level Jacksonville Center
04:04PM 32.0836 -78.4228 196° South 391 450 36,000  Level Jacksonville Center
04:05PM 31.9806 -78.4622 198° South 385 443 36,000  Level Jacksonville Center
04:06PM 31.8772 -78.4964 196° South 390 449 36,000  Level Jacksonville Center
04:07PM 31.7700 -78.5333 196° South 395 455 36,000  Level Jacksonville Center
04:08PM 31.6669 -78.5675 196° South 395 455 36,000  Level Jacksonville Center
04:09PM 31.5636 -78.6039 197° South 395 455 36,000  Level Jacksonville Center
04:10PM 31.4525 -78.6456 198° South 395 455 36,000  Level Jacksonville Center
04:11PM 31.3469 -78.6794 195° South 400 460 36,000  Level Jacksonville Center
04:12PM 31.2397 -78.7158 196° South 400 460 36,000  Level Jacksonville Center
04:13PM 31.1325 -78.7547 197° South 400 460 36,000  Level Jacksonville Center
04:14PM 31.0169 -78.7936 196° South 400 460 36,000  Level Jacksonville Center
04:15PM 30.9053 -78.8325 197° South 404 465 36,000  Level Jacksonville Center
04:16PM 30.8000 -78.8708 197° South 404 465 36,000  Level Jacksonville Center
04:17PM 30.6864 -78.9069 195° South 407 468 36,000  Level Jacksonville Center
04:20PM 30.4269 -78.9964 197° South 399 459 36,000  Level Miami Center
04:21PM 30.3200 -79.0422 200° South 409 471 36,000  Level Miami Center
04:22PM 30.2086 -79.0878 199° South 420 483 36,000  Level Miami Center
04:23PM 30.0956 -79.1311 198° South 420 483 36,000  Level Miami Center
04:24PM 29.9800 -79.1814 201° Southwest 420 483 36,000  Level Miami Center
04:25PM 29.8689 -79.2219 198° South 420 483 36,000  Level Miami Center
04:26PM 29.7617 -79.2650 199° South 420 483 36,000  Level Miami Center
04:27PM 29.6483 -79.3056 197° South 415 478 36,000  Level Miami Center
04:28PM 29.5414 -79.3483 199° South 415 478 36,000  Level Miami Center
04:29PM 29.4281 -79.3886 197° South 420 483 36,000  Level Miami Center
04:30PM 29.3189 -79.4314 199° South 425 489 36,000  Level Miami Center
04:31PM 29.2075 -79.4717 198° South 425 489 36,000  Level Miami Center
04:32PM 29.0961 -79.5142 198° South 425 489 36,000  Level Miami Center
04:38PM 28.4025 -79.7707 198° South 423 487 36,000  Level FlightAware ADS-B (KMCO)
04:39PM 28.3281 -79.7983 198° South 421 484 36,000  Level FlightAware ADS-B (KMCO)
04:39PM 28.2677 -79.8207 198° South 419 482 36,000  Level FlightAware ADS-B (KMCO)
04:40PM 28.1905 -79.8493 198° South 421 484 36,000  Level FlightAware ADS-B (KMCO)
04:41PM 28.1147 -79.8774 198° South 425 489 36,000  Level FlightAware ADS-B (KMCO)
04:41PM 28.0339 -79.9072 198° South 426 490 36,000  Level FlightAware ADS-B (KMCO)
04:42PM 27.9850 -79.9253 198° South 426 490 36,000  Level FlightAware ADS-B (KMCO)
04:43PM 27.8804 -79.9638 198° South 424 488 36,000  Level FlightAware ADS-B (KMCO)
04:43PM 27.8055 -79.9913 198° South 424 488 36,000  Level FlightAware ADS-B (KMCO)
04:44PM 27.7312 -80.0186 198° South 426 490 36,000  Level FlightAware ADS-B (KMCO)
04:45PM 27.6542 -80.0468 198° South 428 493 36,000  Level FlightAware ADS-B (KMCO)
04:45PM 27.5786 -80.0744 198° South 429 494 36,000  Level FlightAware ADS-B (KMCO)
04:46PM 27.5210 -80.0955 198° South 428 493 36,000  Level FlightAware ADS-B (KMCO)
04:47PM 27.4283 -80.1293 198° South 428 493 36,000  Level FlightAware ADS-B (KMCO)
04:47PM 27.3522 -80.1570 198° South 429 494 36,000  Level FlightAware ADS-B (KMCO)
04:48PM 27.2794 -80.1836 198° South 432 497 36,000  Level FlightAware ADS-B (KMCO)
04:49PM 27.2097 -80.2089 198° South 436 502 36,000  Level FlightAware ADS-B (KMCO)
04:49PM 27.1487 -80.2311 198° South 436 502 36,000  Level FlightAware ADS-B (KMCO)
04:50PM 27.0547 -80.2651 198° South 435 501 36,000  Level FlightAware ADS-B (KMCO)
04:51PM 26.9690 -80.2960 198° South 434 499 36,000  Level FlightAware ADS-B (KMCO)
04:51PM 26.8990 -80.3213 198° South 433 498 36,000  Level FlightAware ADS-B (KMCO)
04:52PM 26.8158 -80.3514 198° South 434 499 36,000  Level FlightAware ADS-B (KMCO)
04:53PM 26.7486 -80.3756 198° South 434 499 36,000  Level FlightAware ADS-B (KMCO)
04:56PM 26.4024 -80.4998 198° South 436 502 36,000  Level FlightAware ADS-B (KMCO)
04:56PM 26.3221 -80.5284 198° South 434 499 36,000  Level FlightAware ADS-B (KMCO)
04:57PM 26.2718 -80.5464 198° South 432 497 36,000  Level FlightAware ADS-B (KMCO)
04:58PM 26.1475 -80.5922 198° South 424 488 36,000  Level Miami Center
04:59PM 26.0339 -80.6325 198° South 429 494 36,000  Level Miami Center
05:00PM 25.9200 -80.6753 199° South 429 494 36,000 -360 Level Miami Center
05:01PM 25.8058 -80.7178 199° South 429 494 35,300 -900 Descending Miami Center
05:02PM 25.6983 -80.7558 198° South 440 506 34,300 -1,020 Descending Miami Center
05:03PM 25.5803 -80.7958 197° South 446 513 33,300 -1,020 Descending Miami Center
05:04PM 25.4644 -80.8381 198° South 446 513 32,300 -960 Descending Miami Center
05:05PM 25.3464 -80.8778 197° South 441 507 31,400 -660 Descending Miami Center
05:06PM 25.2347 -80.9153 197° South 441 507 31,000 -240 Descending Miami Center
05:07PM 25.1228 -80.9553 198° South 436 502 31,000 -360 Level Miami Center
05:08PM 25.0111 -80.9928 197° South 430 495 30,300 -900 Descending Miami Center
05:09PM 24.9014 -81.0303 197° South 425 489 29,300 -1,020 Descending Miami Center
05:10PM 24.7939 -81.0678 198° South 420 483 28,300 -1,020 Descending Miami Center
05:11PM 24.6864 -81.1008 196° South 415 478 27,300 -960 Descending Miami Center
05:12PM 24.5753 -81.1175 188° South 409 471 26,400 -960 Descending Miami Center
05:13PM 24.4619 -81.1319 187° South 409 471 25,400 -1,020 Descending Miami Center
05:14PM 24.3550 -81.1511 189° South 409 471 24,400 -1,020 Descending Miami Center
05:15PM 24.2478 -81.1725 190° South 409 471 23,400 -1,020 Descending Miami Center
05:16PM 24.1450 -81.1917 190° South 398 458 22,400 -1,020 Descending Miami Center
05:17PM 24.0481 -81.2178 194° South 378 435 21,400 -1,020 Descending Miami Center
05:19PM 23.8680 -81.2440 191° South  Level FlightAware Approximate
05:26PM 23.0954 -81.4295 194° South  Level FlightAware Approximate
05:27PM 23.0098 -81.4841 258° West  Level FlightAware Approximate
05:28PM 22.9935 -81.6055 264° West  Level FlightAware Approximate
05:29PM 22.9810 -81.7274 257° West  Level FlightAware Approximate
05:30PM 22.9554 -81.8471 257° West  Level FlightAware Approximate
05:31PM 22.9333 -81.9671 270° West  Level FlightAware Approximate
05:32PM 22.9333 -82.0899 270° West  Level FlightAware Approximate
05:33PM 22.9500 -82.2102 270° West  Level FlightAware Approximate
05:34PM 22.9667 -82.3311 270° West  Level FlightAware Approximate
05:35PM 22.9667 -82.4000 270° West  Level FlightAware Approximate
05:36PM 22.9891 -82.4091 270° West  Level Estimated
05:37PM 22.9891 -82.4091 270° West  Level Estimated
05:38PM 22.9891 -82.4091 270° West  Level Estimated
05:39PM 22.9891 -82.4091 270° West  Level Estimated
05:40PM 22.9891 -82.4091 270° West  Level Estimated
05:41PM 22.9891 -82.4091 270° West  Level Estimated
05:42PM 22.9891 -82.4091 270° West  Level Estimated
05:43PM 22.9891 -82.4091 270° West  Level Estimated
05:44PM 22.9891 -82.4091 270° West  Level Estimated
05:45PM 22.9891 -82.4091 270° West  Level Estimated
05:46PM 22.9891 -82.4091 270° West  Level Estimated
05:47PM 22.9891 -82.4091 270° West  Level Estimated
05:48PM 22.9891 -82.4091 270° West  Level Estimated
05:49PM 22.9891 -82.4091 270° West  Level Estimated
05:50PM 22.9891 -82.4091 270° West  Level Estimated
05:51PM 22.9891 -82.4091 270° West  Level Estimated
05:52PM 22.9891 -82.4091 270° West  Level Estimated
05:53PM 22.9891 -82.4091 270° West  Level Estimated
05:54PM 22.9891 -82.4091 270° West  Level Estimated
05:55PM 22.9891 -82.4091 270° West  Level Estimated